• Join FlightAware (Why Join?)
  • Login
  • US Flag 
12:36AM EDT


 

Airport Tracker/Info


-or-


 

Live Flight TrackerFlight Track Log ✈ FDX1347 ✈ 02-May-2013 ✈ KALB - KMEM

Flight Track Log - Related Links

Times and Time Zones

All times are in EDT time to prevent confusion due to time zone crossing. See the FDX1347 flight status page for this flight to view local times or setup timezone preferences in your user account.

Time Position Orientation Groundspeed Altitude Reporting Facility
EDT Latitude Longitude Course Direction KTS MPH feet Rate Location/Type
09:53PM 42.7278 -73.8108 205° Southwest 148 170 1,600  Level Boston Center
09:54PM 42.6856 -73.8381 205° Southwest 231 266 3,300 1,980 Climbing Boston Center
09:55PM 42.6892 -73.8892 276° West 258 297 4,500 2,880 Climbing Boston Center
09:56PM 42.7067 -73.9883 284° West 277 319 7,700 2,880 Climbing Boston Center
09:57PM 42.7178 -74.0933 278° West 282 325 10,300 2,040 Climbing Boston Center
09:58PM 42.7264 -74.2036 276° West 312 359 11,800 1,500 Climbing Boston Center
09:59PM 42.6700 -74.3433 241° Southwest 366 421 13,700 1,980 Climbing Boston Center
10:04PM 42.3080 -75.1300 241° Southwest 455 524 25,100 1,980 Climbing FlightAware
10:05PM 42.2580 -75.2370 238° Southwest 464 534 26,000 1,320 Climbing FlightAware
10:06PM 42.2110 -75.3390 238° Southwest 472 543 27,000 1,440 Climbing FlightAware
10:06PM 42.1580 -75.4520 238° Southwest 480 552 28,100 1,620 Climbing FlightAware
10:07PM 42.1170 -75.5380 237° Southwest 481 554 29,200 2,280 Climbing FlightAware
10:08PM 42.0640 -75.6530 238° Southwest 469 540 31,200 2,160 Climbing FlightAware
10:09PM 42.0190 -75.7470 237° Southwest 469 540 32,500 1,980 Climbing FlightAware
10:09PM 41.9820 -75.8250 237° Southwest 467 537 33,700 2,340 Climbing FlightAware
10:10PM 41.9379 -75.9191 238° Southwest 458 527 35,000 2,160 Climbing FlightAware ADS-B
10:10PM 41.9021 -75.9954 238° Southwest 452 520 36,100 1,800 Climbing FlightAware ADS-B
10:11PM 41.8683 -76.0684 238° Southwest 449 517 36,900 1,500 Climbing FlightAware ADS-B
10:11PM 41.8349 -76.1386 237° Southwest 448 516 37,600 1,080 Climbing FlightAware ADS-B
10:12PM 41.8010 -76.2090 237° Southwest 449 517 38,000 360 Climbing FlightAware ADS-B
10:12PM 41.7675 -76.2793 237° Southwest 449 517 38,000  Level FlightAware ADS-B
10:13PM 41.7326 -76.3517 237° Southwest 448 516 38,000  Level FlightAware ADS-B
10:13PM 41.6974 -76.4262 238° Southwest 449 517 38,000  Level FlightAware ADS-B
10:14PM 41.6637 -76.4964 237° Southwest 449 517 38,000  Level FlightAware ADS-B
10:14PM 41.6299 -76.5663 237° Southwest 450 518 38,000  Level FlightAware ADS-B
10:15PM 41.5932 -76.6434 238° Southwest 451 519 38,000  Level FlightAware ADS-B
10:15PM 41.5558 -76.7207 237° Southwest 452 520 38,000  Level FlightAware ADS-B
10:16PM 41.5210 -76.7909 237° Southwest 452 520 38,000  Level FlightAware ADS-B
10:16PM 41.4839 -76.8681 237° Southwest 452 520 38,000  Level FlightAware ADS-B
10:17PM 41.4481 -76.9404 237° Southwest 451 519 38,000  Level FlightAware ADS-B
10:17PM 41.4134 -77.0126 237° Southwest 450 518 38,000  Level FlightAware ADS-B
10:18PM 41.3745 -77.0915 237° Southwest 450 518 38,000  Level FlightAware ADS-B
10:18PM 41.3402 -77.1610 237° Southwest 450 518 38,000  Level FlightAware ADS-B
10:19PM 41.2994 -77.2445 237° Southwest 450 518 38,000  Level FlightAware ADS-B
10:20PM 41.2584 -77.3277 237° Southwest 450 518 38,000  Level FlightAware ADS-B
10:20PM 41.2198 -77.4063 237° Southwest 450 518 38,000  Level FlightAware ADS-B
10:21PM 41.1540 -77.5398 237° Southwest 450 518 38,000  Level FlightAware ADS-B
10:22PM 41.1185 -77.6087 236° Southwest 449 517 38,000  Level FlightAware ADS-B
10:22PM 41.0835 -77.6800 237° Southwest 450 518 38,000  Level FlightAware ADS-B
10:23PM 41.0200 -77.8061 236° Southwest 450 518 38,000  Level FlightAware ADS-B
10:24PM 40.9780 -77.8910 237° Southwest 450 518 38,000  Level FlightAware
10:24PM 40.9395 -77.9663 236° Southwest 450 518 38,000  Level FlightAware ADS-B
10:25PM 40.8760 -78.0920 236° Southwest 449 517 38,000  Level FlightAware
10:26PM 40.8310 -78.1830 237° Southwest 448 516 38,000  Level FlightAware
10:27PM 40.7780 -78.2850 236° Southwest 447 514 38,000  Level FlightAware
10:27PM 40.7330 -78.3730 236° Southwest 446 513 38,000  Level FlightAware
10:28PM 40.6880 -78.4630 237° Southwest 445 512 38,000  Level FlightAware
10:29PM 40.6360 -78.5640 236° Southwest 443 510 38,000  Level FlightAware
10:29PM 40.5880 -78.6550 235° Southwest 442 509 38,000  Level FlightAware
10:30PM 40.5370 -78.7550 236° Southwest 442 509 38,000  Level FlightAware
10:31PM 40.4930 -78.8390 235° Southwest 439 505 38,000  Level FlightAware
10:32PM 40.4470 -78.9280 236° Southwest 439 505 38,000  Level FlightAware
10:32PM 40.3940 -79.0310 236° Southwest 438 504 38,000  Level FlightAware
10:33PM 40.3510 -79.1110 235° Southwest 437 503 38,000  Level FlightAware
10:34PM 40.3060 -79.1990 236° Southwest 435 501 38,000  Level FlightAware
10:34PM 40.2510 -79.3030 235° Southwest 435 501 38,000  Level FlightAware
10:35PM 40.2020 -79.3960 235° Southwest 434 499 38,000  Level FlightAware
10:36PM 40.1500 -79.4950 236° Southwest 434 499 38,000  Level FlightAware
10:36PM 40.1050 -79.5790 235° Southwest 434 499 38,000  Level FlightAware
10:37PM 40.0520 -79.6780 235° Southwest 435 501 38,000  Level FlightAware
10:38PM 40.0060 -79.7650 235° Southwest 434 499 38,000  Level FlightAware
10:39PM 39.9600 -79.8500 235° Southwest 433 498 38,000  Level FlightAware
10:39PM 39.9110 -79.9420 235° Southwest 433 498 38,000  Level FlightAware
10:40PM 39.8630 -80.0320 235° Southwest 430 495 38,000  Level FlightAware
10:41PM 39.8130 -80.1250 235° Southwest 429 494 38,000  Level FlightAware
10:41PM 39.7660 -80.2110 235° Southwest 428 493 38,000  Level FlightAware
10:42PM 39.7060 -80.3230 235° Southwest 427 491 38,000  Level FlightAware
10:43PM 39.6580 -80.4100 234° Southwest 427 491 38,000  Level FlightAware
10:44PM 39.6070 -80.5020 234° Southwest 426 490 38,000  Level FlightAware
10:44PM 39.5610 -80.5880 235° Southwest 427 491 38,000  Level FlightAware
10:45PM 39.5070 -80.6840 234° Southwest 427 491 38,000  Level FlightAware
10:46PM 39.4620 -80.7670 235° Southwest 427 491 38,000  Level FlightAware
10:46PM 39.4160 -80.8500 234° Southwest 427 491 38,000  Level FlightAware
10:47PM 39.3650 -80.9420 234° Southwest 426 490 38,000  Level FlightAware
10:48PM 39.3120 -81.0370 234° Southwest 425 489 38,000  Level FlightAware
10:49PM 39.2670 -81.1170 234° Southwest 425 489 38,000  Level FlightAware
10:49PM 39.2180 -81.2060 235° Southwest 424 488 38,000  Level FlightAware
10:50PM 39.1730 -81.2860 234° Southwest 424 488 38,000  Level FlightAware
10:51PM 39.1240 -81.3740 234° Southwest 423 487 38,000  Level FlightAware
10:51PM 39.0710 -81.4680 234° Southwest 423 487 38,000  Level FlightAware
10:52PM 39.0250 -81.5490 234° Southwest 423 487 38,000  Level FlightAware
10:53PM 38.9740 -81.6400 234° Southwest 424 488 38,000  Level FlightAware
10:54PM 38.9280 -81.7200 234° Southwest 425 489 38,000  Level FlightAware
10:54PM 38.8820 -81.8010 234° Southwest 424 488 38,000  Level FlightAware
10:55PM 38.8270 -81.8970 234° Southwest 425 489 38,000  Level FlightAware
10:56PM 38.7820 -81.9760 234° Southwest 425 489 38,000  Level FlightAware
10:56PM 38.7390 -82.0610 237° Southwest 425 489 38,000  Level FlightAware
10:57PM 38.7020 -82.1610 245° Southwest 427 491 38,000  Level FlightAware
10:58PM 38.6670 -82.2550 245° Southwest 427 491 38,000  Level FlightAware
10:58PM 38.6270 -82.3570 243° Southwest 427 491 38,000  Level FlightAware
10:59PM 38.5920 -82.4450 243° Southwest 428 493 38,000  Level FlightAware
11:00PM 38.5560 -82.5380 244° Southwest 428 493 38,000  Level FlightAware
11:00PM 38.5230 -82.6210 243° Southwest 429 494 38,000  Level FlightAware
11:01PM 38.4840 -82.7240 244° Southwest 430 495 38,000  Level FlightAware
11:02PM 38.4410 -82.8330 243° Southwest 430 495 38,000  Level FlightAware
11:03PM 38.3960 -82.9440 243° Southwest 431 496 38,000  Level FlightAware
11:04PM 38.3650 -83.0220 243° Southwest 431 496 38,000  Level FlightAware
11:04PM 38.3392 -83.0888 244° Southwest 431 496 38,000  Level FlightAware ADS-B
11:04PM 38.3108 -83.1614 244° Southwest 431 496 38,000  Level FlightAware ADS-B
11:05PM 38.2712 -83.2605 243° Southwest 430 495 38,000  Level FlightAware ADS-B
11:06PM 38.2424 -83.3326 243° Southwest 429 494 38,000  Level FlightAware ADS-B
11:06PM 38.2030 -83.4310 243° Southwest 427 491 38,000  Level FlightAware
11:07PM 38.1630 -83.5300 243° Southwest 426 490 38,000  Level FlightAware
11:08PM 38.1120 -83.6570 243° Southwest 426 490 38,000  Level FlightAware
11:09PM 38.0840 -83.7240 242° Southwest 426 490 38,000  Level FlightAware
11:09PM 38.0520 -83.7990 242° Southwest 426 490 38,000  Level FlightAware
11:10PM 38.0100 -83.9070 244° Southwest 426 490 38,000  Level FlightAware
11:11PM 37.9690 -84.0090 243° Southwest 425 489 38,000  Level FlightAware
11:11PM 37.9340 -84.0960 243° Southwest 425 489 38,000  Level FlightAware
11:12PM 37.8930 -84.1950 242° Southwest 425 489 38,000  Level FlightAware
11:13PM 37.8570 -84.2830 243° Southwest 424 488 38,000  Level FlightAware
11:14PM 37.8150 -84.3850 242° Southwest 426 490 38,000  Level FlightAware
11:14PM 37.8068 -84.4046 242° Southwest 426 490 38,000  Level FlightAware ADS-B
11:14PM 37.7793 -84.4707 242° Southwest 426 490 38,000  Level FlightAware ADS-B
11:15PM 37.7519 -84.5368 242° Southwest 425 489 38,000  Level FlightAware ADS-B
11:15PM 37.7235 -84.6050 242° Southwest 425 489 38,000  Level FlightAware ADS-B
11:16PM 37.6959 -84.6708 242° Southwest 424 488 38,000  Level FlightAware ADS-B
11:16PM 37.6664 -84.7409 242° Southwest 425 489 38,000  Level FlightAware ADS-B
11:17PM 37.6394 -84.8065 243° Southwest 425 489 38,000  Level FlightAware ADS-B
11:17PM 37.6298 -84.8255 237° Southwest 424 488 38,000  Level FlightAware ADS-B
11:17PM 37.6227 -84.8376 233° Southwest 423 487 38,000  Level FlightAware ADS-B
11:17PM 37.6147 -84.8488 228° Southwest 422 486 38,000  Level FlightAware ADS-B
11:17PM 37.6029 -84.8645 227° Southwest 420 483 38,000  Level FlightAware ADS-B
11:17PM 37.5927 -84.8754 220° Southwest 420 483 38,000  Level FlightAware ADS-B
11:17PM 37.5812 -84.8851 214° Southwest 419 482 38,000  Level FlightAware ADS-B
11:18PM 37.5635 -84.8971 208° Southwest 419 482 38,000  Level FlightAware ADS-B
11:18PM 37.5102 -84.9287 205° Southwest 419 482 38,000  Level FlightAware ADS-B
11:19PM 37.4568 -84.9589 204° Southwest 420 483 38,000  Level FlightAware ADS-B
11:19PM 37.4215 -84.9798 205° Southwest 419 482 38,000  Level FlightAware ADS-B
11:19PM 37.4000 -84.9968 212° Southwest 419 482 38,000  Level FlightAware ADS-B
11:19PM 37.3797 -85.0190 221° Southwest 420 483 38,000  Level FlightAware ADS-B
11:20PM 37.3656 -85.0391 229° Southwest 420 483 38,000  Level FlightAware ADS-B
11:20PM 37.3526 -85.0637 236° Southwest 422 486 38,000  Level FlightAware ADS-B
11:20PM 37.3306 -85.1190 243° Southwest 425 489 38,000  Level FlightAware ADS-B
11:21PM 37.3050 -85.1879 245° Southwest 425 489 38,000  Level FlightAware ADS-B
11:21PM 37.2748 -85.2657 244° Southwest 425 489 38,000  Level FlightAware ADS-B
11:22PM 37.2480 -85.3370 245° Southwest 425 489 38,000  Level FlightAware
11:22PM 37.2412 -85.3547 244° Southwest 425 489 38,000  Level FlightAware ADS-B
11:22PM 37.2147 -85.4238 244° Southwest 426 490 38,000  Level FlightAware ADS-B
11:23PM 37.1887 -85.4925 245° Southwest 426 490 38,000  Level FlightAware ADS-B
11:24PM 37.1628 -85.5592 244° Southwest 425 489 38,000  Level FlightAware ADS-B
11:24PM 37.1369 -85.6259 244° Southwest 430 495 38,000  Level FlightAware ADS-B
11:25PM 37.1120 -85.6890 244° Southwest 434 499 38,000  Level FlightAware ADS-B
11:25PM 37.0827 -85.7662 245° Southwest 437 503 38,000  Level FlightAware ADS-B
11:26PM 37.0558 -85.8348 244° Southwest 439 505 38,000  Level FlightAware ADS-B
11:26PM 37.0290 -85.9032 244° Southwest 440 506 38,000  Level FlightAware ADS-B
11:27PM 37.0006 -85.9764 244° Southwest 440 506 38,000  Level FlightAware ADS-B
11:27PM 36.9736 -86.0450 244° Southwest 442 509 38,000  Level FlightAware ADS-B
11:28PM 36.9240 -86.1710 244° Southwest 443 510 38,000  Level FlightAware
11:29PM 36.8860 -86.2630 243° Southwest 443 510 38,000  Level FlightAware
11:29PM 36.8467 -86.3666 245° Southwest 444 511 38,000  Level FlightAware ADS-B
11:30PM 36.8191 -86.4376 244° Southwest 444 511 38,000  Level FlightAware ADS-B
11:30PM 36.7918 -86.5064 244° Southwest 444 511 38,000  Level FlightAware ADS-B
11:31PM 36.7638 -86.5753 243° Southwest 445 512 38,000  Level FlightAware ADS-B
11:31PM 36.7362 -86.6443 243° Southwest 445 512 38,000  Level FlightAware ADS-B
11:32PM 36.7042 -86.7247 244° Southwest 445 512 38,000  Level FlightAware ADS-B
11:33PM 36.6729 -86.8029 243° Southwest 447 514 38,000  Level FlightAware ADS-B
11:33PM 36.6450 -86.8720 243° Southwest 448 516 38,000 -120 Level FlightAware
11:34PM 36.6070 -86.9660 243° Southwest 445 512 37,900 -840 Descending FlightAware
11:34PM 36.5700 -87.0580 243° Southwest 448 516 36,900 -1,380 Descending FlightAware
11:35PM 36.5280 -87.1620 243° Southwest 449 517 36,000 -1,080 Descending FlightAware
11:36PM 36.4920 -87.2520 244° Southwest 445 512 35,400 -720 Descending FlightAware
11:37PM 36.4490 -87.3560 243° Southwest 441 507 35,000 -300 Descending FlightAware
11:37PM 36.4120 -87.4460 243° Southwest 442 509 35,000  Level FlightAware
11:38PM 36.3750 -87.5380 243° Southwest 434 499 35,000  Level FlightAware
11:39PM 36.3350 -87.6350 243° Southwest 426 490 35,000  Level FlightAware
11:39PM 36.2990 -87.7200 242° Southwest 423 487 35,000 -540 Level FlightAware
11:40PM 36.2590 -87.8200 244° Southwest 416 479 34,300 -960 Descending FlightAware
11:41PM 36.2240 -87.9040 243° Southwest 412 474 33,700 -720 Descending FlightAware
11:42PM 36.1830 -88.0010 242° Southwest 410 472 33,300 -240 Descending FlightAware
11:42PM 36.1450 -88.0890 242° Southwest 410 472 33,300  Level FlightAware
11:43PM 36.1150 -88.1590 242° Southwest 410 472 33,300  Level FlightAware
11:44PM 36.0840 -88.2300 242° Southwest 410 472 33,300  Level FlightAware
11:44PM 36.0540 -88.3000 242° Southwest 410 472 33,300  Level FlightAware
11:45PM 36.0240 -88.3710 242° Southwest 410 472 33,300  Level FlightAware
11:46PM 35.9860 -88.4590 242° Southwest 410 472 33,300  Level FlightAware
11:47PM 35.9560 -88.5290 242° Southwest 410 472 33,300  Level FlightAware
11:47PM 35.9250 -88.5990 241° Southwest 410 472 33,300  Level FlightAware
11:48PM 35.8950 -88.6700 242° Southwest 410 472 33,300  Level FlightAware
11:49PM 35.8650 -88.7400 242° Southwest 410 472 33,300  Level FlightAware
11:49PM 35.8270 -88.8280 242° Southwest 410 472 33,300  Level FlightAware
11:50PM 35.7970 -88.8980 242° Southwest 410 472 33,300  Level FlightAware
11:51PM 35.7660 -88.9680 241° Southwest 410 472 33,300 -11,760 Level FlightAware
11:51PM 35.7019 -89.1069 241° Southwest 356 410 20,200 -10,020 Descending Memphis Center
11:52PM 35.6442 -89.1844 227° Southwest 332 382 18,800 -1,380 Descending Memphis Center
11:53PM 35.5825 -89.2644 227° Southwest 320 368 17,500 -1,380 Descending Memphis Center
11:54PM 35.5225 -89.3417 226° Southwest 320 368 16,100 -1,320 Descending Memphis Center
11:55PM 35.4647 -89.4164 226° Southwest 313 360 14,900 -840 Descending Memphis Center
11:56PM 35.4383 -89.5083 251° West 296 341 14,500 -840 Descending Memphis Center
11:57PM 35.4158 -89.5953 252° West 276 318 13,300 -1,140 Descending Memphis Center
11:58PM 35.3936 -89.6897 254° West 270 311 12,300 -1,080 Descending Memphis Center
11:59PM 35.3731 -89.7714 253° West 258 297 11,200 -1,080 Descending Memphis Center
12:00AM 35.3547 -89.8481 254° West 253 291 10,200 -660 Descending Memphis Center
12:01AM 35.3342 -89.9142 249° West 229 264 9,900 -660 Descending Memphis Center
12:02AM 35.2833 -89.9000 167° South 189 217 9,100 -1,020 Descending KMEM
12:03AM 35.2333 -89.9000 180° South 193 222 8,100 -1,080 Descending KMEM
12:04AM 35.1833 -89.8833 165° South 193 222 7,100 -1,020 Descending KMEM
12:05AM 35.1167 -89.8833 180° South 195 224 6,000 -720 Descending KMEM
12:06AM 35.0833 -89.8667 158° South 193 222 5,700 -780 Descending KMEM
12:07AM 35.0333 -89.8667 180° South 186 214 4,600 -900 Descending KMEM
12:08AM 34.9833 -89.8667 180° South 185 213 4,000 -360 Descending KMEM
12:09AM 34.9333 -89.8667 180° South 186 214 4,000  Level KMEM
12:10AM 34.8667 -89.8667 180° South 179 206 4,000  Level KMEM
12:11AM 34.8167 -89.8667 180° South 185 213 4,000  Level KMEM
12:12AM 34.7667 -89.8500 165° South 184 212 4,000  Level KMEM
12:13AM 34.7167 -89.8500 180° South 180 207 4,000  Level KMEM
12:14AM 34.6667 -89.8500 180° South 182 209 4,000 -360 Level KMEM
12:15AM 34.6500 -89.9000 248° West 215 247 3,300 -540 Descending KMEM
12:16AM 34.6833 -89.9500 309° West 222 255 3,000 -180 Descending KMEM
12:17AM 34.7333 -89.9667 345° North 203 234 3,000  Level KMEM
12:18AM 34.8000 -89.9667 360° North 198 228 3,000  Level KMEM
12:19AM 34.8500 -89.9667 360° North 198 228 3,000 -180 Level KMEM
12:20AM 34.9000 -89.9667 360° North 198 228 2,700 -720 Descending KMEM
12:21AM 34.9500 -89.9667 360° North 187 215 1,700 -900 Descending KMEM
12:22AM 35.0000 -89.9667 360° North 135 155 900 -780 Descending KMEM
12:24AM 35.0333 -89.9667 340° North  Level FlightAware Approximate